createdAt,value
2017-08-07T00:00:56.646Z,65.6
2017-08-07T00:01:58.043Z,65.7
2017-08-07T00:02:59.443Z,65.6
2017-08-07T00:04:00.835Z,65.7
2017-08-07T00:05:02.232Z,65.0
2017-08-07T00:06:03.640Z,65.5
2017-08-07T00:07:05.050Z,65.6
2017-08-07T00:08:06.449Z,65.4
2017-08-07T00:09:07.849Z,65.5
2017-08-07T00:10:09.245Z,65.6
2017-08-07T00:11:10.643Z,65.4
2017-08-07T00:12:12.045Z,65.5
2017-08-07T00:13:13.443Z,65.5
2017-08-07T00:14:14.842Z,66.6
2017-08-07T00:15:16.245Z,66.2
2017-08-07T00:16:17.660Z,66.0
2017-08-07T00:17:19.045Z,66.0
2017-08-07T00:18:20.443Z,66.7
2017-08-07T00:19:21.838Z,66.8
2017-08-07T00:20:23.266Z,67.2
2017-08-07T00:21:24.664Z,67.2
2017-08-07T00:22:26.061Z,67.3
2017-08-07T00:23:27.454Z,67.2
2017-08-07T00:24:28.852Z,67.3
2017-08-07T00:25:30.249Z,67.6
2017-08-07T00:26:31.647Z,67.9
2017-08-07T00:27:33.045Z,67.7
2017-08-07T00:28:34.447Z,68.2
2017-08-07T00:29:35.848Z,67.1
2017-08-07T00:30:37.246Z,67.8
2017-08-07T00:31:38.641Z,68.0
2017-08-07T00:32:40.038Z,67.8
2017-08-07T00:33:41.434Z,67.6
2017-08-07T00:34:42.829Z,68.4
2017-08-07T00:35:44.244Z,68.1
2017-08-07T00:36:45.648Z,68.4
2017-08-07T00:37:47.033Z,68.8
2017-08-07T00:38:48.427Z,68.7
2017-08-07T00:39:49.825Z,69.2
2017-08-07T00:40:51.219Z,69.1
2017-08-07T00:41:52.619Z,69.3
2017-08-07T00:42:54.015Z,69.5
2017-08-07T00:43:55.415Z,68.6
2017-08-07T00:44:56.812Z,69.5
2017-08-07T00:45:58.206Z,70.1
2017-08-07T00:46:59.600Z,69.3
2017-08-07T00:48:01.011Z,70.4
2017-08-07T00:49:02.418Z,69.9
2017-08-07T00:50:03.817Z,69.6
2017-08-07T00:51:05.218Z,70.0
2017-08-07T00:52:06.615Z,69.6
2017-08-07T00:53:08.013Z,69.4
2017-08-07T00:54:09.410Z,70.0
2017-08-07T00:55:10.807Z,70.4
2017-08-07T00:56:12.212Z,70.0
2017-08-07T00:57:13.609Z,70.6
2017-08-07T00:58:15.011Z,70.7
2017-08-07T00:59:16.406Z,70.5
2017-08-07T01:00:17.801Z,70.3
2017-08-07T01:01:19.199Z,70.1
2017-08-07T01:02:20.595Z,71.1
2017-08-07T01:03:21.998Z,70.8
2017-08-07T01:04:23.397Z,71.3
2017-08-07T01:05:24.793Z,70.6
2017-08-07T01:06:26.188Z,70.8
2017-08-07T01:07:27.582Z,70.2
2017-08-07T01:08:28.980Z,70.5
2017-08-07T01:09:30.376Z,70.4
2017-08-07T01:10:31.774Z,71.4
2017-08-07T01:11:33.173Z,71.2
2017-08-07T01:12:34.575Z,70.9
2017-08-07T01:13:35.969Z,71.3
2017-08-07T01:14:37.364Z,71.1
2017-08-07T01:15:38.765Z,71.0
2017-08-07T01:16:40.169Z,71.2
2017-08-07T01:17:41.564Z,71.4
2017-08-07T01:18:42.981Z,71.4
2017-08-07T01:19:44.399Z,71.6
2017-08-07T01:20:45.785Z,71.3
2017-08-07T01:21:47.176Z,71.6
2017-08-07T01:22:48.572Z,71.5
2017-08-07T01:23:49.971Z,71.1
2017-08-07T01:24:51.369Z,71.6
2017-08-07T01:25:52.769Z,71.3
2017-08-07T01:26:54.173Z,71.8
2017-08-07T01:27:55.564Z,71.7
2017-08-07T01:28:56.959Z,71.4
2017-08-07T01:29:58.354Z,71.7
2017-08-07T01:30:59.751Z,71.6
2017-08-07T01:32:01.147Z,71.7
2017-08-07T01:33:02.547Z,71.3
2017-08-07T01:34:03.943Z,71.4
2017-08-07T01:35:05.340Z,70.3
2017-08-07T01:36:06.738Z,71.4
2017-08-07T01:37:08.133Z,70.5
2017-08-07T01:38:09.528Z,70.3
2017-08-07T01:39:10.931Z,69.9
2017-08-07T01:40:12.329Z,69.5
2017-08-07T01:41:13.728Z,70.1
2017-08-07T01:42:15.118Z,68.6
2017-08-07T01:43:16.533Z,69.6
2017-08-07T01:44:17.938Z,69.2
2017-08-07T01:45:19.336Z,69.0
2017-08-07T01:46:20.734Z,69.1
2017-08-07T01:47:22.130Z,69.1
2017-08-07T01:48:23.529Z,69.6
2017-08-07T01:49:24.926Z,69.1
2017-08-07T01:50:26.340Z,69.1
2017-08-07T01:51:27.734Z,69.0
2017-08-07T01:52:29.133Z,69.4
2017-08-07T01:53:30.529Z,69.9
2017-08-07T01:54:31.930Z,69.5
2017-08-07T01:55:33.331Z,70.2
2017-08-07T01:56:34.722Z,70.5
2017-08-07T01:57:36.118Z,70.9
2017-08-07T01:58:37.513Z,71.6
2017-08-07T01:59:38.918Z,71.8
2017-08-07T02:00:40.314Z,71.5
2017-08-07T02:01:41.714Z,72.5
2017-08-07T02:02:43.112Z,72.2
2017-08-07T02:03:44.504Z,71.7
2017-08-07T02:04:45.901Z,71.9
2017-08-07T02:05:47.301Z,72.6
2017-08-07T02:06:48.693Z,72.6
2017-08-07T02:07:50.093Z,72.1
2017-08-07T02:08:51.497Z,72.4
2017-08-07T02:09:52.896Z,72.3
2017-08-07T02:10:54.285Z,71.9
2017-08-07T02:11:55.689Z,71.6
2017-08-07T02:12:57.085Z,72.7
2017-08-07T02:13:58.481Z,72.3
2017-08-07T02:14:59.878Z,71.9
2017-08-07T02:16:01.274Z,71.9
2017-08-07T02:17:02.675Z,72.1
2017-08-07T02:18:04.070Z,72.5
2017-08-07T02:19:05.463Z,72.4
2017-08-07T02:20:06.863Z,72.1
2017-08-07T02:21:08.256Z,72.8
2017-08-07T02:22:09.657Z,72.3
2017-08-07T02:23:11.050Z,72.7
2017-08-07T02:24:12.448Z,72.7
2017-08-07T02:25:13.846Z,72.2
2017-08-07T02:26:15.241Z,71.4
2017-08-07T02:27:16.641Z,72.4
2017-08-07T02:28:18.043Z,72.2
2017-08-07T02:29:19.440Z,72.3
2017-08-07T02:30:20.838Z,72.0
2017-08-07T02:31:22.238Z,71.9
2017-08-07T02:32:23.633Z,71.2
2017-08-07T02:33:25.029Z,71.3
2017-08-07T02:34:26.422Z,71.5
2017-08-07T02:35:27.816Z,71.4
2017-08-07T02:36:29.214Z,71.7
2017-08-07T02:37:30.613Z,71.1
2017-08-07T02:38:32.009Z,71.5
2017-08-07T02:39:33.408Z,71.4
2017-08-07T02:40:34.801Z,71.5
2017-08-07T02:41:36.198Z,70.6
2017-08-07T02:42:37.592Z,70.5
2017-08-07T02:43:38.992Z,71.3
2017-08-07T02:44:40.390Z,71.3
2017-08-07T02:45:41.788Z,70.9
2017-08-07T02:46:43.181Z,71.3
2017-08-07T02:47:44.579Z,71.1
2017-08-07T02:48:45.976Z,71.0
2017-08-07T02:49:47.372Z,71.6
2017-08-07T02:50:48.773Z,71.6
2017-08-07T02:51:50.173Z,71.6
2017-08-07T02:52:51.570Z,72.0
2017-08-07T02:53:52.968Z,71.7
2017-08-07T02:54:54.360Z,72.0
2017-08-07T02:55:55.756Z,72.0
2017-08-07T02:56:57.153Z,71.8
2017-08-07T02:57:58.569Z,71.8
2017-08-07T02:58:59.966Z,71.9
2017-08-07T03:00:01.365Z,72.2
2017-08-07T03:01:02.796Z,72.7
2017-08-07T03:02:04.195Z,71.8
2017-08-07T03:03:05.587Z,71.6
2017-08-07T03:04:06.990Z,72.5
2017-08-07T03:05:08.385Z,72.5
2017-08-07T03:06:09.782Z,72.0
2017-08-07T03:07:11.181Z,72.6
2017-08-07T03:08:12.576Z,72.0
2017-08-07T03:09:13.968Z,71.8
2017-08-07T03:10:15.363Z,71.9
2017-08-07T03:11:16.766Z,72.4
2017-08-07T03:12:18.158Z,72.7
2017-08-07T03:13:19.558Z,72.2
2017-08-07T03:14:20.957Z,72.3
2017-08-07T03:15:22.350Z,72.7
2017-08-07T03:16:23.745Z,72.8
2017-08-07T03:17:25.141Z,72.8
2017-08-07T03:18:26.546Z,72.7
2017-08-07T03:19:27.935Z,71.6
2017-08-07T03:20:29.331Z,72.3
2017-08-07T03:21:30.739Z,72.7
2017-08-07T03:22:32.135Z,72.3
2017-08-07T03:23:33.536Z,72.4
2017-08-07T03:24:34.931Z,72.5
2017-08-07T03:25:36.325Z,72.1
2017-08-07T03:26:37.722Z,72.1
2017-08-07T03:27:39.124Z,72.8
2017-08-07T03:28:40.518Z,72.5
2017-08-07T03:29:41.914Z,72.3
2017-08-07T03:30:43.319Z,72.6
2017-08-07T03:31:44.706Z,72.5
2017-08-07T03:32:46.097Z,72.2
2017-08-07T03:33:47.494Z,72.2
2017-08-07T03:34:48.891Z,72.1
2017-08-07T03:35:50.291Z,72.6
2017-08-07T03:36:51.687Z,72.2
2017-08-07T03:37:53.086Z,72.6
2017-08-07T03:38:54.483Z,72.4
2017-08-07T03:39:55.877Z,72.2
2017-08-07T03:40:57.275Z,71.9
2017-08-07T03:41:58.675Z,72.2
2017-08-07T03:43:00.071Z,72.1
2017-08-07T03:44:01.470Z,72.4
2017-08-07T03:45:02.862Z,72.8
2017-08-07T03:46:04.258Z,71.7
2017-08-07T03:47:05.653Z,72.5
2017-08-07T03:48:07.052Z,71.7
2017-08-07T03:49:08.448Z,71.7
2017-08-07T03:50:09.846Z,71.9
2017-08-07T03:51:11.244Z,71.7
2017-08-07T03:52:12.657Z,71.4
2017-08-07T03:53:14.051Z,71.9
2017-08-07T03:54:15.448Z,71.8
2017-08-07T03:55:16.844Z,71.4
2017-08-07T03:56:18.245Z,71.9
2017-08-07T03:57:19.647Z,71.6
2017-08-07T03:58:21.043Z,71.5
2017-08-07T03:59:22.435Z,72.0
2017-08-07T04:00:23.835Z,71.6
2017-08-07T04:01:25.229Z,72.9
2017-08-07T04:02:26.626Z,72.2
2017-08-07T04:03:28.026Z,72.4
2017-08-07T04:04:29.425Z,73.1
2017-08-07T04:05:30.820Z,72.4
2017-08-07T04:06:32.214Z,72.6
2017-08-07T04:07:33.612Z,72.2
2017-08-07T04:08:35.010Z,72.5
2017-08-07T04:09:36.409Z,72.8
2017-08-07T04:10:37.804Z,72.1
2017-08-07T04:11:39.204Z,72.3
2017-08-07T04:12:40.599Z,72.3
2017-08-07T04:13:41.997Z,72.2
2017-08-07T04:14:43.398Z,72.5
2017-08-07T04:15:44.794Z,72.7
2017-08-07T04:16:46.194Z,72.3
2017-08-07T04:17:47.594Z,72.3
2017-08-07T04:18:48.997Z,72.7
2017-08-07T04:19:50.394Z,72.2
2017-08-07T04:20:51.794Z,72.3
2017-08-07T04:21:53.187Z,71.7
2017-08-07T04:22:54.584Z,71.8
2017-08-07T04:23:55.984Z,72.5
2017-08-07T04:24:57.391Z,71.9
2017-08-07T04:25:58.785Z,72.7
2017-08-07T04:27:00.180Z,72.6
2017-08-07T04:28:01.580Z,71.5
2017-08-07T04:29:03.010Z,72.3
2017-08-07T04:30:04.410Z,72.1
2017-08-07T04:31:05.806Z,72.0
2017-08-07T04:32:07.211Z,72.0
2017-08-07T04:33:08.605Z,72.1
2017-08-07T04:34:10.005Z,71.8
2017-08-07T04:35:11.403Z,71.6
2017-08-07T04:36:12.804Z,71.9
2017-08-07T04:37:14.741Z,71.6
2017-08-07T04:38:16.160Z,71.6
2017-08-07T04:39:17.545Z,71.2
2017-08-07T04:40:18.945Z,71.6
2017-08-07T04:41:20.342Z,71.5
2017-08-07T04:42:21.740Z,71.0
2017-08-07T04:43:23.136Z,70.8
2017-08-07T04:44:24.536Z,71.4
2017-08-07T04:45:25.941Z,70.2
2017-08-07T04:46:27.340Z,69.9
2017-08-07T04:47:28.739Z,70.9
2017-08-07T04:48:30.135Z,70.9
2017-08-07T04:49:31.533Z,71.0
2017-08-07T04:50:32.933Z,70.6
2017-08-07T04:51:34.334Z,71.5
2017-08-07T04:52:35.733Z,71.5
2017-08-07T04:53:37.139Z,71.3
2017-08-07T04:54:38.538Z,70.2
2017-08-07T04:55:39.942Z,70.1
2017-08-07T04:56:41.341Z,70.4
2017-08-07T04:57:42.737Z,70.5
2017-08-07T04:58:44.139Z,70.6
2017-08-07T04:59:45.547Z,70.5
2017-08-07T05:00:46.947Z,70.3
2017-08-07T05:01:48.357Z,70.5
2017-08-07T05:02:49.752Z,70.1
2017-08-07T05:03:51.160Z,70.2
2017-08-07T05:04:52.597Z,70.4
2017-08-07T05:05:53.999Z,69.9
2017-08-07T05:06:55.411Z,69.9
2017-08-07T05:07:56.811Z,70.5
2017-08-07T05:08:58.213Z,70.6
2017-08-07T05:09:59.613Z,69.8
2017-08-07T05:11:01.034Z,70.6
2017-08-07T05:12:02.433Z,69.6
2017-08-07T05:13:03.831Z,69.3
2017-08-07T05:14:05.301Z,69.9
2017-08-07T05:15:06.702Z,70.1
2017-08-07T05:16:08.098Z,70.0
2017-08-07T05:17:09.495Z,70.0
2017-08-07T05:18:10.893Z,69.4
2017-08-07T05:19:12.300Z,69.8
2017-08-07T05:20:13.701Z,69.3
2017-08-07T05:21:15.096Z,69.5
2017-08-07T05:22:16.563Z,69.2
2017-08-07T05:23:17.935Z,69.1
2017-08-07T05:24:19.333Z,68.9
2017-08-07T05:25:20.729Z,69.1
2017-08-07T05:26:22.131Z,68.8
2017-08-07T05:27:23.550Z,68.8
2017-08-07T05:28:24.950Z,69.3
2017-08-07T05:29:26.351Z,68.8
2017-08-07T05:30:27.752Z,68.2
2017-08-07T05:31:29.152Z,67.8
2017-08-07T05:32:30.572Z,67.6
2017-08-07T05:33:31.969Z,68.1
2017-08-07T05:34:33.371Z,68.1
2017-08-07T05:35:34.774Z,68.2
2017-08-07T05:36:36.180Z,67.9
2017-08-07T05:37:37.578Z,67.8
2017-08-07T05:38:38.976Z,67.6
2017-08-07T05:39:40.378Z,67.7
2017-08-07T05:40:41.778Z,67.4
2017-08-07T05:41:43.179Z,67.8
2017-08-07T05:42:44.590Z,67.7
2017-08-07T05:43:45.993Z,67.5
2017-08-07T05:44:47.391Z,67.1
2017-08-07T05:45:48.791Z,66.9
2017-08-07T05:46:50.277Z,68.2
2017-08-07T05:47:51.668Z,67.8
2017-08-07T05:48:53.084Z,67.8
2017-08-07T05:49:54.499Z,67.1
2017-08-07T05:50:55.900Z,67.1
2017-08-07T05:51:57.302Z,67.0
2017-08-07T05:52:58.703Z,67.6
2017-08-07T05:54:00.101Z,66.8
2017-08-07T05:55:01.501Z,66.4
2017-08-07T05:56:02.907Z,67.6
2017-08-07T05:57:04.306Z,67.5
2017-08-07T05:58:05.708Z,67.3
2017-08-07T05:59:07.112Z,66.6
2017-08-07T06:00:08.513Z,66.5
2017-08-07T06:01:09.907Z,66.5
2017-08-07T06:02:11.323Z,66.6
2017-08-07T06:03:12.718Z,66.2
2017-08-07T06:04:14.125Z,66.3
2017-08-07T06:05:15.537Z,66.4
2017-08-07T06:06:16.943Z,66.3
2017-08-07T06:07:18.343Z,65.6
2017-08-07T06:08:19.745Z,65.8
2017-08-07T06:09:21.144Z,65.1
2017-08-07T06:10:22.543Z,65.0
2017-08-07T06:11:23.939Z,65.4
2017-08-07T06:12:25.344Z,65.0
2017-08-07T06:13:26.747Z,64.8
2017-08-07T06:14:28.148Z,64.3
2017-08-07T06:15:29.548Z,64.1
2017-08-07T06:16:30.953Z,64.2
2017-08-07T06:17:32.351Z,64.0
2017-08-07T06:18:33.752Z,64.5
2017-08-07T06:19:35.155Z,64.8
2017-08-07T06:20:36.556Z,65.3
2017-08-07T06:21:38.002Z,64.6
2017-08-07T06:22:39.406Z,64.7
2017-08-07T06:23:40.807Z,64.8
2017-08-07T06:24:42.208Z,64.8
2017-08-07T06:25:43.609Z,64.8
2017-08-07T06:26:45.011Z,64.9
2017-08-07T06:27:46.413Z,64.8
2017-08-07T06:28:47.814Z,65.0
2017-08-07T06:29:49.214Z,65.1
2017-08-07T06:30:50.616Z,65.2
2017-08-07T06:31:52.013Z,65.2
2017-08-07T06:32:53.417Z,64.8
2017-08-07T06:33:54.822Z,64.8
2017-08-07T06:34:56.223Z,64.6
2017-08-07T06:35:57.622Z,63.8
2017-08-07T06:36:59.023Z,64.6
2017-08-07T06:38:00.425Z,64.7
2017-08-07T06:39:01.825Z,64.6
2017-08-07T06:40:03.253Z,64.7
2017-08-07T06:41:04.654Z,64.3
2017-08-07T06:42:06.057Z,64.2
2017-08-07T06:43:07.460Z,64.2
2017-08-07T06:44:08.863Z,64.2
2017-08-07T06:45:10.256Z,64.1
2017-08-07T06:46:11.656Z,64.3
2017-08-07T06:47:13.059Z,64.2
2017-08-07T06:48:14.465Z,64.0
2017-08-07T06:49:15.867Z,63.2
2017-08-07T06:50:17.265Z,63.3
2017-08-07T06:51:18.665Z,63.2
2017-08-07T06:52:20.068Z,62.4
2017-08-07T06:53:21.469Z,63.3
2017-08-07T06:54:22.890Z,63.2
2017-08-07T06:55:24.296Z,62.9
2017-08-07T06:56:25.702Z,63.0
2017-08-07T06:57:27.102Z,62.4
2017-08-07T06:58:28.502Z,62.5
2017-08-07T06:59:29.906Z,62.7
2017-08-07T07:00:31.302Z,62.5
2017-08-07T07:01:32.704Z,61.9
2017-08-07T07:02:34.111Z,61.7
2017-08-07T07:03:35.513Z,61.4
2017-08-07T07:04:36.915Z,61.5
2017-08-07T07:05:38.313Z,61.1
2017-08-07T07:06:39.718Z,61.2
2017-08-07T07:07:41.116Z,60.9
2017-08-07T07:08:42.518Z,61.3
2017-08-07T07:09:43.934Z,61.3
2017-08-07T07:10:45.340Z,60.6
2017-08-07T07:11:46.736Z,61.1
2017-08-07T07:12:48.139Z,60.6
2017-08-07T07:13:49.538Z,61.0
2017-08-07T07:14:50.940Z,60.9
2017-08-07T07:15:52.344Z,61.0
2017-08-07T07:16:53.746Z,60.1
2017-08-07T07:17:55.151Z,59.9
2017-08-07T07:18:56.552Z,60.1
2017-08-07T07:19:57.951Z,59.2
2017-08-07T07:20:59.354Z,59.5
2017-08-07T07:22:00.757Z,58.4
2017-08-07T07:23:02.160Z,58.6
2017-08-07T07:24:03.580Z,58.4
2017-08-07T07:25:04.980Z,58.6
2017-08-07T07:26:06.382Z,59.1
2017-08-07T07:27:07.781Z,58.9
2017-08-07T07:28:09.183Z,58.9
2017-08-07T07:29:10.584Z,58.9
2017-08-07T07:30:11.988Z,58.9
2017-08-07T07:31:13.393Z,59.2
2017-08-07T07:32:14.796Z,59.1
2017-08-07T07:33:16.197Z,59.0
2017-08-07T07:34:17.599Z,58.3
2017-08-07T07:35:19.000Z,56.8
2017-08-07T07:36:20.405Z,57.1
2017-08-07T07:37:21.810Z,56.8
2017-08-07T07:38:23.216Z,56.9
2017-08-07T07:39:24.637Z,57.3
2017-08-07T07:40:26.030Z,57.2
2017-08-07T07:41:27.425Z,57.1
2017-08-07T07:42:28.874Z,56.1
2017-08-07T07:43:30.243Z,55.3
2017-08-07T07:44:31.648Z,54.6
2017-08-07T07:45:33.098Z,54.7
2017-08-07T07:46:34.502Z,54.4
2017-08-07T07:47:35.910Z,54.7
2017-08-07T07:48:37.309Z,54.3
2017-08-07T07:49:38.709Z,55.5
2017-08-07T07:50:40.122Z,55.2
2017-08-07T07:51:41.524Z,54.7
2017-08-07T07:52:42.929Z,53.5
2017-08-07T07:53:44.334Z,52.9
2017-08-07T07:54:45.739Z,52.6
2017-08-07T07:55:47.137Z,53.4
2017-08-07T07:56:48.542Z,54.2
2017-08-07T07:57:49.946Z,54.1
2017-08-07T07:58:51.350Z,55.3
2017-08-07T07:59:53.080Z,56.4
2017-08-07T08:00:54.480Z,56.2
2017-08-07T08:01:55.880Z,55.7
2017-08-07T08:02:57.281Z,56.2
2017-08-07T08:03:58.686Z,55.5
2017-08-07T08:05:00.088Z,53.9
2017-08-07T08:06:01.494Z,53.4
2017-08-07T08:07:02.898Z,53.2
2017-08-07T08:08:04.305Z,52.5
2017-08-07T08:09:05.709Z,54.3
2017-08-07T08:10:07.108Z,55.3
2017-08-07T08:11:08.519Z,57.3
2017-08-07T08:12:09.915Z,57.1
2017-08-07T08:13:11.331Z,57.1
2017-08-07T08:14:12.742Z,56.9
2017-08-07T08:15:14.150Z,56.2
2017-08-07T08:16:15.551Z,57.2
2017-08-07T08:17:16.957Z,56.6
2017-08-07T08:18:18.359Z,55.7
2017-08-07T08:19:19.764Z,56.2
2017-08-07T08:20:21.174Z,55.0
2017-08-07T08:21:22.585Z,56.2
2017-08-07T08:22:23.989Z,54.8
2017-08-07T08:23:25.398Z,54.5
2017-08-07T08:24:26.798Z,54.9
2017-08-07T08:25:28.204Z,55.9
2017-08-07T08:26:29.612Z,54.5
2017-08-07T08:27:31.015Z,54.6
2017-08-07T08:28:32.422Z,54.7
2017-08-07T08:29:33.828Z,51.1
2017-08-07T08:30:35.232Z,49.9
2017-08-07T08:31:36.633Z,51.0
2017-08-07T08:32:38.046Z,51.8
2017-08-07T08:33:39.444Z,51.4
2017-08-07T08:34:40.856Z,49.5
2017-08-07T08:35:42.284Z,51.1
2017-08-07T08:36:43.675Z,51.3
2017-08-07T08:37:45.080Z,51.3
2017-08-07T08:38:46.483Z,51.4
2017-08-07T08:39:47.888Z,50.2
2017-08-07T08:40:49.292Z,49.8
2017-08-07T08:41:50.699Z,49.5
2017-08-07T08:42:52.102Z,50.6
2017-08-07T08:43:53.506Z,48.9
2017-08-07T08:44:54.910Z,47.7
2017-08-07T08:45:56.316Z,48.3
2017-08-07T08:46:57.721Z,47.9
2017-08-07T08:47:59.127Z,47.4
2017-08-07T08:49:00.545Z,47.3
2017-08-07T08:50:01.950Z,46.5
2017-08-07T08:51:03.363Z,46.1
2017-08-07T08:52:04.768Z,46.0
2017-08-07T08:53:06.167Z,45.5
2017-08-07T08:54:07.574Z,45.8
2017-08-07T08:55:08.985Z,46.0
2017-08-07T08:56:10.391Z,44.8
2017-08-07T08:57:11.798Z,44.2
2017-08-07T08:58:13.203Z,43.9
2017-08-07T08:59:14.608Z,44.1
2017-08-07T09:00:16.011Z,43.6
2017-08-07T09:01:17.419Z,44.6
2017-08-07T09:02:18.837Z,44.8
2017-08-07T09:03:20.245Z,45.2
2017-08-07T09:04:21.653Z,44.5
2017-08-07T09:05:23.077Z,42.8
2017-08-07T09:06:24.477Z,43.2
2017-08-07T09:07:25.881Z,41.6
2017-08-07T09:08:27.292Z,43.3
2017-08-07T09:09:28.700Z,42.8
2017-08-07T09:10:30.106Z,43.1
2017-08-07T09:11:31.514Z,41.5
2017-08-07T09:12:32.916Z,42.5
2017-08-07T09:13:34.327Z,41.8
2017-08-07T09:14:35.729Z,41.8
2017-08-07T09:15:37.138Z,41.9
2017-08-07T09:16:38.546Z,41.5
2017-08-07T09:17:39.956Z,42.1
2017-08-07T09:18:41.364Z,41.7
2017-08-07T09:19:42.769Z,42.4
2017-08-07T09:20:44.173Z,40.9
2017-08-07T09:21:45.574Z,41.2
2017-08-07T09:22:46.982Z,41.6
2017-08-07T09:23:48.385Z,42.1
2017-08-07T09:24:49.800Z,39.6
2017-08-07T09:25:51.207Z,40.9
2017-08-07T09:26:52.614Z,39.4
2017-08-07T09:27:54.022Z,42.0
2017-08-07T09:28:55.422Z,41.0
2017-08-07T09:29:56.829Z,41.5
2017-08-07T09:30:58.231Z,40.8
2017-08-07T09:31:59.638Z,40.8
2017-08-07T09:33:01.046Z,40.4
2017-08-07T09:34:02.453Z,41.6
2017-08-07T09:35:03.856Z,43.2
2017-08-07T09:36:05.269Z,43.1
2017-08-07T09:37:06.669Z,43.7
2017-08-07T09:38:08.080Z,41.0
2017-08-07T09:39:09.488Z,40.8
2017-08-07T09:40:10.896Z,41.4
2017-08-07T09:41:12.304Z,41.5
2017-08-07T09:42:13.720Z,40.6
2017-08-07T09:43:15.124Z,40.2
2017-08-07T09:44:16.538Z,39.5
2017-08-07T09:45:17.936Z,39.4
2017-08-07T09:46:19.355Z,38.8
2017-08-07T09:47:20.768Z,37.7
2017-08-07T09:48:22.194Z,37.8
2017-08-07T09:49:23.600Z,37.8
2017-08-07T09:50:25.008Z,37.7
2017-08-07T09:51:26.419Z,38.8
2017-08-07T09:52:27.840Z,36.6
2017-08-07T09:53:29.246Z,39.2
2017-08-07T09:54:30.654Z,40.0
2017-08-07T09:55:32.061Z,38.7
2017-08-07T09:56:33.465Z,38.7
2017-08-07T09:57:34.872Z,37.9
2017-08-07T09:58:36.281Z,38.1
2017-08-07T09:59:37.700Z,36.1
2017-08-07T10:00:39.104Z,37.5
2017-08-07T10:01:40.515Z,38.7
2017-08-07T10:02:41.921Z,37.6
2017-08-07T10:03:43.946Z,39.0
2017-08-07T10:04:45.340Z,38.3
2017-08-07T10:05:46.753Z,38.2
2017-08-07T10:06:48.154Z,38.1
2017-08-07T10:07:49.561Z,38.1
2017-08-07T10:08:50.979Z,36.3
2017-08-07T10:09:52.381Z,37.2
2017-08-07T10:10:53.787Z,37.5
2017-08-07T10:11:55.195Z,37.0
2017-08-07T10:12:56.601Z,35.9
2017-08-07T10:13:58.034Z,35.0
2017-08-07T10:14:59.440Z,35.7
2017-08-07T10:16:00.849Z,35.4
2017-08-07T10:17:02.254Z,37.4
2017-08-07T10:18:03.686Z,37.2
2017-08-07T10:19:05.089Z,36.6
2017-08-07T10:20:06.494Z,36.2
2017-08-07T10:21:07.928Z,35.6
2017-08-07T10:22:09.312Z,33.9
2017-08-07T10:23:10.729Z,33.8
2017-08-07T10:24:12.134Z,34.5
2017-08-07T10:25:13.540Z,35.1
2017-08-07T10:26:14.944Z,34.6
2017-08-07T10:27:16.352Z,34.5
2017-08-07T10:28:17.765Z,36.0
2017-08-07T10:29:19.175Z,34.5
2017-08-07T10:30:20.639Z,33.5
2017-08-07T10:31:22.058Z,32.3
2017-08-07T10:32:23.466Z,34.3
2017-08-07T10:33:24.875Z,34.0
2017-08-07T10:34:26.283Z,32.0
2017-08-07T10:35:27.689Z,31.7
2017-08-07T10:36:29.100Z,32.4
2017-08-07T10:37:30.508Z,30.8
2017-08-07T10:38:31.922Z,31.6
2017-08-07T10:39:33.330Z,31.9
2017-08-07T10:40:34.734Z,32.3
2017-08-07T10:41:36.154Z,30.2
2017-08-07T10:42:37.561Z,30.6
2017-08-07T10:43:38.962Z,31.6
2017-08-07T10:44:40.374Z,32.9
2017-08-07T10:45:41.789Z,32.6
2017-08-07T10:46:43.197Z,32.2
2017-08-07T10:47:44.608Z,29.0
2017-08-07T10:48:46.018Z,29.1
2017-08-07T10:49:47.427Z,27.6
2017-08-07T10:50:48.837Z,29.5
2017-08-07T10:51:50.246Z,29.3
2017-08-07T10:52:51.661Z,28.7
2017-08-07T10:53:53.070Z,28.5
2017-08-07T10:54:54.477Z,26.9
2017-08-07T10:55:55.895Z,26.8
2017-08-07T10:56:57.299Z,26.8
2017-08-07T10:57:58.712Z,26.0
2017-08-07T10:59:00.125Z,26.7
2017-08-07T11:00:01.533Z,25.4
2017-08-07T11:01:02.943Z,26.0
2017-08-07T11:02:04.350Z,26.8
2017-08-07T11:03:05.768Z,27.4
2017-08-07T11:04:07.175Z,27.3
2017-08-07T11:05:08.588Z,28.6
2017-08-07T11:06:10.004Z,29.1
2017-08-07T11:07:11.421Z,29.3
2017-08-07T11:08:12.826Z,30.5
2017-08-07T11:09:14.237Z,29.4
2017-08-07T11:10:15.646Z,28.2
2017-08-07T11:11:17.062Z,29.0
2017-08-07T11:12:18.465Z,28.5
2017-08-07T11:13:19.886Z,28.3
2017-08-07T11:14:21.306Z,27.2
2017-08-07T11:15:22.710Z,27.7
2017-08-07T11:16:24.132Z,27.0
2017-08-07T11:17:25.546Z,27.8
2017-08-07T11:18:26.961Z,27.1
2017-08-07T11:19:28.372Z,28.7
2017-08-07T11:20:29.788Z,27.9
2017-08-07T11:21:31.237Z,26.5
2017-08-07T11:22:32.645Z,26.8
2017-08-07T11:23:34.060Z,25.5
2017-08-07T11:24:35.468Z,27.7
2017-08-07T11:25:36.883Z,27.1
2017-08-07T11:26:38.292Z,26.5
2017-08-07T11:27:39.707Z,25.7
2017-08-07T11:28:41.124Z,26.8
2017-08-07T11:29:42.528Z,27.0
2017-08-07T11:30:43.952Z,25.9
2017-08-07T11:31:45.359Z,25.9
2017-08-07T11:32:46.779Z,25.9
2017-08-07T11:33:48.191Z,26.6
2017-08-07T11:34:49.604Z,27.2
2017-08-07T11:35:51.019Z,27.6
2017-08-07T11:36:52.433Z,26.8
2017-08-07T11:37:53.854Z,26.0
2017-08-07T11:38:55.267Z,25.8
2017-08-07T11:39:56.684Z,26.5
2017-08-07T11:40:58.098Z,27.8
2017-08-07T11:41:59.507Z,27.4
2017-08-07T11:43:00.926Z,25.2
2017-08-07T11:44:02.336Z,25.4
2017-08-07T11:45:03.749Z,26.5
2017-08-07T11:46:05.166Z,25.0
2017-08-07T11:47:06.582Z,24.7
2017-08-07T11:48:07.990Z,24.7
2017-08-07T11:49:09.407Z,24.3
2017-08-07T11:50:10.821Z,25.8
2017-08-07T11:51:12.235Z,25.9
2017-08-07T11:52:13.648Z,27.3
2017-08-07T11:53:15.060Z,26.3
2017-08-07T11:54:16.473Z,25.6
2017-08-07T11:55:17.892Z,25.0
2017-08-07T11:56:19.304Z,25.0
2017-08-07T11:57:20.718Z,24.9
2017-08-07T11:58:22.135Z,24.1
2017-08-07T11:59:23.540Z,24.0
2017-08-07T12:00:24.953Z,23.9
2017-08-07T12:01:26.365Z,22.0
2017-08-07T12:02:27.784Z,23.5
2017-08-07T12:03:29.197Z,24.3
2017-08-07T12:04:30.614Z,24.2
2017-08-07T12:05:32.027Z,23.6
2017-08-07T12:06:33.440Z,22.0
2017-08-07T12:07:34.856Z,23.0
2017-08-07T12:08:36.269Z,22.1
2017-08-07T12:09:37.685Z,21.4
2017-08-07T12:10:39.101Z,23.1
2017-08-07T12:11:40.516Z,23.2
2017-08-07T12:12:41.940Z,22.1
2017-08-07T12:13:43.343Z,21.8
2017-08-07T12:14:44.761Z,21.4
2017-08-07T12:15:46.172Z,22.0
2017-08-07T12:16:47.589Z,21.6
2017-08-07T12:17:49.002Z,23.0
2017-08-07T12:18:50.422Z,23.3
2017-08-07T12:19:51.831Z,21.5
2017-08-07T12:20:53.269Z,22.8
2017-08-07T12:21:54.683Z,21.1
2017-08-07T12:22:56.096Z,21.8
2017-08-07T12:23:57.514Z,22.3
2017-08-07T12:24:58.926Z,21.4
2017-08-07T12:26:00.341Z,21.9
2017-08-07T12:27:01.755Z,21.1
2017-08-07T12:28:03.165Z,21.9
2017-08-07T12:29:04.579Z,20.4
2017-08-07T12:30:05.995Z,20.9
2017-08-07T12:31:07.414Z,21.1
2017-08-07T12:32:08.827Z,21.9
2017-08-07T12:33:10.241Z,21.5
2017-08-07T12:34:11.653Z,22.4
2017-08-07T12:35:13.246Z,20.7
2017-08-07T12:36:14.663Z,21.9
2017-08-07T12:37:16.080Z,20.8
2017-08-07T12:38:17.493Z,20.1
2017-08-07T12:39:18.913Z,19.7
2017-08-07T12:40:20.328Z,19.3
2017-08-07T12:41:21.740Z,19.2
2017-08-07T12:42:23.160Z,18.9
2017-08-07T12:43:24.578Z,18.9
2017-08-07T12:44:25.989Z,19.3
2017-08-07T12:45:27.403Z,20.1
2017-08-07T12:46:28.826Z,19.6
2017-08-07T12:47:30.240Z,19.4
2017-08-07T12:48:31.663Z,20.3
2017-08-07T12:49:33.069Z,21.3
2017-08-07T12:50:34.503Z,22.7
2017-08-07T12:51:35.914Z,21.6
2017-08-07T12:52:37.332Z,19.8
2017-08-07T12:53:38.756Z,21.4
2017-08-07T12:54:40.169Z,20.3
2017-08-07T12:55:41.584Z,20.9
2017-08-07T12:56:42.997Z,22.1
2017-08-07T12:57:44.419Z,20.0
2017-08-07T12:58:45.836Z,20.9
2017-08-07T12:59:47.255Z,20.6
2017-08-07T13:00:48.723Z,19.6
2017-08-07T13:01:50.139Z,21.5
2017-08-07T13:02:51.553Z,21.5
2017-08-07T13:03:52.972Z,21.4
2017-08-07T13:04:54.385Z,20.8
2017-08-07T13:05:55.799Z,20.0
2017-08-07T13:06:57.214Z,20.3
2017-08-07T13:07:58.629Z,19.9
2017-08-07T13:09:00.051Z,20.6
2017-08-07T13:10:01.460Z,20.9
2017-08-07T13:11:02.877Z,20.5
2017-08-07T13:12:04.300Z,20.4
2017-08-07T13:13:05.716Z,19.9
2017-08-07T13:14:07.132Z,19.8
2017-08-07T13:15:08.549Z,18.5
2017-08-07T13:16:09.967Z,19.6
2017-08-07T13:17:11.379Z,19.7
2017-08-07T13:18:12.826Z,19.7
2017-08-07T13:19:14.241Z,19.9
2017-08-07T13:20:15.657Z,19.7
2017-08-07T13:21:17.072Z,17.4
2017-08-07T13:22:18.489Z,19.5
2017-08-07T13:23:19.907Z,19.3
2017-08-07T13:24:21.321Z,18.5
2017-08-07T13:25:22.735Z,17.3
2017-08-07T13:26:24.153Z,17.0
2017-08-07T13:27:25.569Z,17.6
2017-08-07T13:28:26.983Z,17.9
2017-08-07T13:29:28.401Z,17.9
2017-08-07T13:30:29.815Z,18.1
2017-08-07T13:31:31.229Z,18.8
2017-08-07T13:32:32.643Z,17.9
2017-08-07T13:33:34.058Z,19.9
2017-08-07T13:34:35.480Z,17.2
2017-08-07T13:35:36.896Z,18.7
2017-08-07T13:36:38.311Z,19.8
2017-08-07T13:37:39.731Z,19.6